Meteo Giornale » Osservazioni meteo Italia » Roma Fiumicino

ore: 23:20 - Osservazioni Meteo Roma Fiumicino
Lat. 41° 48' N Lon. 12° 14' E Alt. 2 metri s.l.m.

sereno Europe/Rome

14 °C

Sereno

Temp. 24 Ore

11 °C

24 °C

Nord

3.7 Km/h

Dew point 12 °C

Umidità 87 %

Visibilità  10 Km

Il sole sorge alle ore 06:13

Il sole tramonta alle ore 20:04

Data e Ora Cielo e Fenomeni T °C DP °C Um. % Pres. hPa Vis. km Vento km/h
Oggi h: 23:20 sereno Sereno 14 12 87 1017 10 N 3.7
Oggi h: 22:50 sereno Sereno 17 13 77 1017 10 N 5.5
Oggi h: 22:20 sereno Sereno 14 13 93 1017 10 E/NE 7.4
Oggi h: 21:50 sereno Sereno 15 13 87 1017 10 N 5.5
Oggi h: 21:20 sereno Sereno 16 14 87 1017 10 N 5.5
Oggi h: 20:50 sereno Sereno 17 14 82 1017 10 O 7.4
Oggi h: 20:20 sereno Sereno 18 14 77 1017 10 N 5.5
Oggi h: 19:50 sereno Sereno 19 14 72 1016 10 O 7.4
Oggi h: 19:20 sereno Sereno 19 13 68 1016 10 O/SO 9.3
Oggi h: 18:50 sereno Sereno 20 12 59 1016 10 O/SO 13
Oggi h: 18:20 sereno Sereno 21 12 56 1017 10 O/SO 13
Oggi h: 17:50 sereno Sereno 21 12 56 1017 10 O/SO 18.5
Oggi h: 17:20 sereno Sereno 22 12 53 1017 10 O/SO 16.7
Oggi h: 16:50 sereno Sereno 22 10 46 1017 10 SO 20.3
Oggi h: 16:20 sereno Sereno 22 9 43 1017 10 SO 18.5
Oggi h: 15:50 sereno Sereno 23 9 40 1017 10 O/SO 18.5
Oggi h: 15:20 sereno Sereno 23 8 38 1017 10 O/SO 16.7
Oggi h: 14:50 sereno Sereno 23 9 40 1018 10 O/SO 14.8
Oggi h: 14:20 sereno Sereno 24 9 38 1018 10 S/SO 16.7
Oggi h: 13:50 sereno Sereno 24 8 35 1018 10 S/SO 13
Oggi h: 13:20 sereno Sereno 24 10 41 1018 10 SO 13
Oggi h: 12:50 sereno Sereno 23 9 40 1018 10 S/SO 11.1
Oggi h: 12:20 sereno Sereno 24 10 41 1019 10 N 7.4
Oggi h: 11:50 sereno Sereno 23 8 38 1019 10 N 5.5
Oggi h: 11:20 sereno Sereno 23 10 43 1019 10 N 5.5
Oggi h: 10:50 sereno Sereno 22 11 49 1019 10 E 7.4
Oggi h: 10:20 sereno Sereno 21 13 60 1019 10 N 5.5
Oggi h: 09:50 sereno Sereno 20 11 56 1019 10 E 7.4
Oggi h: 09:20 sereno Sereno 18 13 72 1019 10 N 5.5
Oggi h: 08:50 sereno Sereno 17 12 72 1019 10 E 9.3
Oggi h: 08:20 sereno Sereno 15 11 76 1019 10 E 9.3
Oggi h: 07:50 sereno Sereno 14 11 82 1019 10 N 5.5
Oggi h: 07:20 sereno Sereno 12 11 93 1019 10 E/NE 7.4
Oggi h: 06:50 sereno Sereno 11 10 93 1018 10 E/NE 7.4
Oggi h: 06:20 sereno Sereno 11 10 93 1018 9 E 7.4
Oggi h: 05:50 sereno Sereno 11 10 93 1018 9 E/NE 7.4
Oggi h: 05:20 sereno Sereno 11 10 93 1018 10 N 5.5
Oggi h: 03:50 sereno Sereno 11 10 93 1018 10 N 5.5
Oggi h: 02:50 sereno Sereno 12 11 93 1019 10 E 7.4
Oggi h: 02:20 sereno Sereno 12 11 93 1019 10 E 9.3
Oggi h: 01:50 sereno Sereno 13 11 87 1019 10 N 5.5
Oggi h: 01:20 sereno Sereno 13 12 93 1019 10 N 5.5
Oggi h: 00:50 sereno Sereno 13 11 87 1019 10 N 5.5
Oggi h: 00:20 sereno Sereno 14 12 87 1019 10 N 3.7
Ieri h: 23:50 sereno Sereno 14 12 87 1019 10 N 5.5